Time;durP1;ratioP1;P1;durP2;ratioP2;P2;SDS_P1;SDS_P2;PMS_P1;PMS_P2;Temp;Humidity;BMP_temperature;BMP_pressure;BME280_temperature;BME280_humidity;BME280_pressure;Samples;Min_cycle;Max_cycle;Signal;HPM_P1;HPM_P2
2023/09/03 00:01:32;;;;;;;33.08;24.30;;;18.10;99.90;;;;;;5091984;28;20257;-44
2023/09/03 00:03:58;;;;;;;35.45;23.85;;;18.10;99.90;;;;;;5091787;28;20196;-43
2023/09/03 00:06:23;;;;;;;34.05;25.10;;;18.10;99.90;;;;;;5092039;28;20581;-43
2023/09/03 00:08:49;;;;;;;32.72;23.95;;;18.00;99.90;;;;;;5091808;28;20165;-43
2023/09/03 00:11:15;;;;;;;37.30;25.92;;;18.00;99.90;;;;;;5091569;28;20626;-43
2023/09/03 00:13:41;;;;;;;36.90;25.80;;;17.90;99.90;;;;;;5091375;28;20634;-43
2023/09/03 00:16:07;;;;;;;32.75;24.00;;;18.00;99.90;;;;;;5091650;28;20695;-43
2023/09/03 00:18:33;;;;;;;37.58;27.33;;;17.90;99.90;;;;;;5091489;28;20284;-43
2023/09/03 00:21:02;;;;;;;41.17;26.98;;;18.00;99.90;;;;;;5091430;28;20532;-43
2023/09/03 00:23:27;;;;;;;35.42;24.73;;;18.00;99.90;;;;;;5091751;28;20173;-43
2023/09/03 00:25:56;;;;;;;40.85;25.40;;;18.00;99.90;;;;;;5092150;28;20188;-43
2023/09/03 00:28:22;;;;;;;32.80;25.17;;;17.90;99.90;;;;;;5091846;28;20165;-43
2023/09/03 00:31:07;;;;;;;38.65;27.90;;;17.90;99.90;;;;;;5091662;28;20165;-43
2023/09/03 00:33:33;;;;;;;37.88;27.27;;;18.00;99.90;;;;;;5091639;28;20210;-43
2023/09/03 00:36:01;;;;;;;42.63;29.05;;;17.80;99.90;;;;;;5091603;28;20230;-46
2023/09/03 00:38:27;;;;;;;49.40;34.78;;;17.90;99.90;;;;;;5091357;28;20201;-45
2023/09/03 00:40:53;;;;;;;42.65;29.23;;;;;;;;;;5091947;28;20165;-44
2023/09/03 00:43:19;;;;;;;44.22;29.33;;;17.90;99.90;;;;;;5091351;28;20226;-45
2023/09/03 00:45:46;;;;;;;40.15;26.95;;;17.80;99.90;;;;;;5091134;28;20225;-47
2023/09/03 00:48:14;;;;;;;42.50;28.30;;;17.70;99.90;;;;;;5090031;28;20170;-46
2023/09/03 00:50:41;;;;;;;42.72;29.17;;;17.70;99.90;;;;;;5091153;28;20691;-44
2023/09/03 00:53:09;;;;;;;43.85;30.08;;;17.70;99.90;;;;;;5091569;28;20170;-46
2023/09/03 00:55:36;;;;;;;39.58;28.17;;;17.70;99.90;;;;;;5091243;28;20184;-45
2023/09/03 00:58:03;;;;;;;39.42;28.58;;;17.80;99.90;;;;;;5091396;28;20205;-48
2023/09/03 01:00:29;;;;;;;42.78;29.42;;;17.60;99.90;;;;;;5091141;28;20162;-46
2023/09/03 01:02:56;;;;;;;41.60;29.45;;;17.60;99.90;;;;;;5091455;28;20165;-44
2023/09/03 01:05:21;;;;;;;38.63;28.33;;;17.50;99.90;;;;;;5091478;28;20177;-43
2023/09/03 01:07:48;;;;;;;40.25;27.20;;;17.60;99.90;;;;;;5091058;28;20177;-46
2023/09/03 01:10:18;;;;;;;41.88;28.02;;;17.60;99.90;;;;;;5090959;28;20517;-44
2023/09/03 01:12:57;;;;;;;45.70;30.80;;;17.40;99.90;;;;;;5090762;28;20627;-44
2023/09/03 01:15:33;;;;;;;41.20;29.40;;;17.50;99.90;;;;;;5092940;28;20251;-48
2023/09/03 01:18:18;;;;;;;42.45;28.58;;;17.40;99.90;;;;;;5094707;28;20196;-45
2023/09/03 01:21:08;;;;;;;43.65;28.75;;;17.30;99.90;;;;;;5095021;28;20252;-46
2023/09/03 01:24:29;;;;;;;40.42;28.23;;;17.40;99.90;;;;;;5094681;28;20622;-43
2023/09/03 01:27:19;;;;;;;41.38;28.00;;;17.30;99.90;;;;;;5094684;28;20176;-43
2023/09/03 01:29:46;;;;;;;42.88;30.13;;;17.20;99.90;;;;;;5094905;28;20598;-43
2023/09/03 01:32:13;;;;;;;42.67;30.15;;;17.30;99.90;;;;;;5094619;28;20170;-43
2023/09/03 01:34:40;;;;;;;49.83;31.23;;;17.20;99.90;;;;;;5094788;28;20173;-43
2023/09/03 01:37:08;;;;;;;44.35;30.75;;;17.20;99.90;;;;;;5094701;28;20189;-43
2023/09/03 01:39:33;;;;;;;51.20;30.60;;;17.20;99.90;;;;;;5094314;28;20205;-44
2023/09/03 01:41:59;;;;;;;47.22;32.30;;;17.20;99.90;;;;;;5094408;28;20184;-43
2023/09/03 01:44:25;;;;;;;46.97;31.10;;;17.10;99.90;;;;;;5094281;28;20215;-43
2023/09/03 01:46:56;;;;;;;49.13;32.13;;;17.10;99.90;;;;;;5094670;28;20204;-44
2023/09/03 01:49:46;;;;;;;45.65;30.90;;;17.00;99.90;;;;;;5094593;28;20169;-43
2023/09/03 01:52:30;;;;;;;48.33;31.20;;;17.00;99.90;;;;;;5094161;28;20162;-43
2023/09/03 01:54:58;;;;;;;50.90;31.20;;;17.10;99.90;;;;;;5094035;28;20169;-43
2023/09/03 01:57:35;;;;;;;47.50;32.47;;;17.10;99.90;;;;;;5094019;28;20173;-43
2023/09/03 02:00:06;;;;;;;44.53;30.05;;;17.00;99.90;;;;;;5094020;28;20212;-43
2023/09/03 02:02:33;;;;;;;46.58;31.92;;;17.00;99.90;;;;;;5094012;28;20516;-43
2023/09/03 02:04:59;;;;;;;47.45;31.95;;;17.00;99.90;;;;;;5093937;28;20165;-43
2023/09/03 02:07:24;;;;;;;49.85;33.65;;;17.10;99.90;;;;;;5093900;28;20691;-43
2023/09/03 02:09:50;;;;;;;53.65;34.13;;;17.10;99.90;;;;;;5094232;28;20165;-43
2023/09/03 02:12:23;;;;;;;46.67;31.27;;;17.10;99.90;;;;;;5093872;28;20255;-44
2023/09/03 02:14:52;;;;;;;48.42;32.80;;;17.10;99.90;;;;;;5094385;28;20170;-43
2023/09/03 02:17:21;;;;;;;47.88;33.10;;;17.10;99.90;;;;;;5093964;28;20186;-43
2023/09/03 02:19:49;;;;;;;48.47;32.58;;;17.00;99.90;;;;;;5093839;28;20211;-43
2023/09/03 02:22:15;;;;;;;49.15;33.85;;;17.00;99.90;;;;;;5093863;28;20197;-43
2023/09/03 02:24:40;;;;;;;52.97;35.65;;;17.00;99.90;;;;;;5093800;28;20197;-43
2023/09/03 02:27:06;;;;;;;49.88;34.55;;;17.10;99.90;;;;;;5092224;28;20165;-45
2023/09/03 02:29:31;;;;;;;48.10;32.35;;;17.10;99.90;;;;;;5093463;28;20158;-43
2023/09/03 02:31:57;;;;;;;40.03;29.83;;;17.00;99.90;;;;;;5093437;28;20222;-43
2023/09/03 02:34:23;;;;;;;45.30;30.85;;;17.10;99.90;;;;;;5093834;28;20240;-46
2023/09/03 02:36:48;;;;;;;43.95;31.48;;;17.00;99.90;;;;;;5093766;28;20244;-44
2023/09/03 02:39:14;;;;;;;49.33;33.08;;;17.00;99.90;;;;;;5093237;28;20580;-45
2023/09/03 02:41:39;;;;;;;47.17;31.67;;;17.00;99.90;;;;;;5093518;28;20589;-43
2023/09/03 02:44:07;;;;;;;51.92;35.05;;;17.10;99.90;;;;;;5093035;28;20628;-43
2023/09/03 02:46:32;;;;;;;55.35;37.13;;;17.00;99.90;;;;;;5093371;28;20169;-45
2023/09/03 02:48:58;;;;;;;51.92;34.95;;;16.90;99.90;;;;;;5093070;28;20713;-46
2023/09/03 02:51:24;;;;;;;43.28;29.17;;;;;;;;;;5093019;28;20169;-45
2023/09/03 02:53:51;;;;;;;39.97;27.77;;;17.00;99.90;;;;;;5093352;28;20179;-43
2023/09/03 02:56:17;;;;;;;37.60;26.77;;;16.90;99.90;;;;;;5093256;28;20588;-43
2023/09/03 02:58:46;;;;;;;43.13;28.25;;;16.90;99.90;;;;;;5092817;28;20535;-44
2023/09/03 03:01:14;;;;;;;40.15;27.38;;;16.90;99.90;;;;;;5092880;28;20161;-45
2023/09/03 03:03:41;;;;;;;34.63;26.90;;;16.80;99.90;;;;;;5093080;28;20188;-45
2023/09/03 03:06:07;;;;;;;36.88;27.55;;;;;;;;;;5091512;28;20215;-45
2023/09/03 03:08:33;;;;;;;35.42;24.15;;;16.70;99.90;;;;;;5092280;28;20165;-43
2023/09/03 03:11:12;;;;;;;30.27;22.67;;;16.80;99.90;;;;;;5092461;28;20244;-43
2023/09/03 03:13:39;;;;;;;30.58;23.63;;;16.80;99.90;;;;;;5092603;28;20177;-44
2023/09/03 03:16:06;;;;;;;35.00;25.75;;;16.80;99.90;;;;;;5092768;28;20173;-43
2023/09/03 03:18:37;;;;;;;45.13;29.10;;;16.70;99.90;;;;;;5092543;28;20201;-43
2023/09/03 03:21:10;;;;;;;43.08;30.35;;;16.70;99.90;;;;;;5092491;28;20200;-44
2023/09/03 03:23:37;;;;;;;46.35;30.65;;;16.80;99.90;;;;;;5092454;28;20252;-44
2023/09/03 03:26:03;;;;;;;46.10;31.75;;;16.70;99.90;;;;;;5092639;28;20177;-43
2023/09/03 03:28:35;;;;;;;57.00;36.70;;;16.60;99.90;;;;;;5092333;28;20161;-43
2023/09/03 03:31:17;;;;;;;54.63;37.45;;;16.50;99.90;;;;;;5092519;28;20165;-44
2023/09/03 03:33:44;;;;;;;50.50;36.08;;;16.50;99.90;;;;;;5092417;28;20201;-48
2023/09/03 03:36:15;;;;;;;56.00;37.45;;;16.50;99.90;;;;;;5092231;28;20165;-43
2023/09/03 03:38:40;;;;;;;61.70;39.28;;;16.60;99.90;;;;;;5091575;28;20258;-45
2023/09/03 03:41:13;;;;;;;48.33;34.05;;;16.60;99.90;;;;;;5092164;28;20210;-51
2023/09/03 03:43:41;;;;;;;50.88;35.13;;;16.50;99.90;;;;;;5091952;28;20162;-50
2023/09/03 03:46:08;;;;;;;52.30;33.58;;;16.60;99.90;;;;;;5091948;28;20232;-51
2023/09/03 03:48:34;;;;;;;47.60;31.00;;;16.60;99.90;;;;;;5091986;28;20172;-48
2023/09/03 03:51:00;;;;;;;41.55;27.70;;;16.50;99.90;;;;;;5092161;28;20260;-51
2023/09/03 03:53:26;;;;;;;41.05;29.17;;;16.50;99.90;;;;;;5091886;28;20169;-50
2023/09/03 03:56:04;;;;;;;47.70;29.17;;;16.40;99.90;;;;;;5092295;28;20169;-50
2023/09/03 03:58:31;;;;;;;40.63;27.13;;;16.40;99.90;;;;;;5091796;28;20201;-51
2023/09/03 04:00:57;;;;;;;68.85;28.55;;;16.50;99.90;;;;;;5091784;28;20165;-49
2023/09/03 04:03:23;;;;;;;112.78;32.10;;;;;;;;;;5092164;28;20157;-52
2023/09/03 04:06:00;;;;;;;45.47;28.98;;;16.40;99.90;;;;;;5092446;28;20162;-50
2023/09/03 04:08:27;;;;;;;47.90;29.15;;;16.40;99.90;;;;;;5091952;28;20183;-48
2023/09/03 04:11:07;;;;;;;41.25;28.05;;;16.30;99.90;;;;;;5092091;28;20187;-49
2023/09/03 04:13:33;;;;;;;37.53;27.73;;;16.30;99.90;;;;;;5091572;28;20172;-46
2023/09/03 04:15:59;;;;;;;39.05;26.98;;;16.30;99.90;;;;;;5091869;28;20170;-47
2023/09/03 04:18:26;;;;;;;37.80;27.05;;;16.20;99.90;;;;;;5091513;28;20215;-51
2023/09/03 04:20:54;;;;;;;43.55;30.23;;;16.40;99.90;;;;;;5091884;28;20165;-50
2023/09/03 04:23:20;;;;;;;33.75;26.92;;;16.30;99.90;;;;;;5091852;28;20161;-48
2023/09/03 04:25:46;;;;;;;42.35;29.95;;;16.30;99.90;;;;;;5090297;28;20184;-49
2023/09/03 04:28:12;;;;;;;51.20;31.80;;;16.30;99.90;;;;;;5091690;28;20256;-50
2023/09/03 04:30:38;;;;;;;52.25;32.83;;;16.20;99.90;;;;;;5091477;28;20258;-48
2023/09/03 04:33:06;;;;;;;50.88;33.25;;;16.30;99.90;;;;;;5091736;28;20192;-49
2023/09/03 04:35:31;;;;;;;50.80;33.92;;;16.30;99.90;;;;;;5091548;28;20204;-51
2023/09/03 04:37:57;;;;;;;55.88;36.30;;;16.30;99.90;;;;;;5091336;28;20293;-48
2023/09/03 04:40:24;;;;;;;49.55;33.05;;;;;;;;;;5091400;28;20170;-47
2023/09/03 04:42:50;;;;;;;42.45;31.17;;;16.30;99.90;;;;;;5091951;28;20633;-50
2023/09/03 04:45:16;;;;;;;47.22;33.10;;;16.30;99.90;;;;;;5091131;28;20306;-52
2023/09/03 04:47:42;;;;;;;51.50;32.65;;;16.30;99.90;;;;;;5091182;28;20176;-51
2023/09/03 04:50:08;;;;;;;59.53;30.80;;;16.20;99.90;;;;;;5092398;28;20173;-50
2023/09/03 04:52:34;;;;;;;50.65;31.33;;;16.20;99.90;;;;;;5095440;28;20187;-51
2023/09/03 04:55:00;;;;;;;48.30;35.03;;;16.10;99.90;;;;;;5095293;28;20252;-51
2023/09/03 04:57:25;;;;;;;51.22;33.53;;;16.10;99.90;;;;;;5095481;28;20694;-48
2023/09/03 04:59:52;;;;;;;44.45;32.00;;;16.10;99.90;;;;;;5095551;28;20211;-48
2023/09/03 05:02:17;;;;;;;48.28;33.92;;;16.10;99.90;;;;;;5095224;28;20193;-45
2023/09/03 05:04:43;;;;;;;69.35;36.53;;;16.00;99.90;;;;;;5095467;28;20189;-50
2023/09/03 05:07:08;;;;;;;51.80;35.05;;;16.00;99.90;;;;;;5095207;28;20615;-47
2023/09/03 05:09:34;;;;;;;59.30;36.10;;;16.00;99.90;;;;;;5095105;28;20682;-44
2023/09/03 05:11:59;;;;;;;91.68;39.72;;;16.10;99.90;;;;;;5095214;28;20169;-44
2023/09/03 05:14:25;;;;;;;90.10;37.78;;;16.10;99.90;;;;;;5094952;28;20534;-44
2023/09/03 05:16:50;;;;;;;229.82;42.42;;;16.20;99.90;;;;;;5095379;28;20158;-44
2023/09/03 05:19:16;;;;;;;256.58;42.42;;;16.20;99.90;;;;;;5094684;28;20652;-44
2023/09/03 05:21:42;;;;;;;155.88;41.25;;;16.20;99.90;;;;;;5094720;28;20197;-44
2023/09/03 05:24:08;;;;;;;148.35;40.22;;;16.30;99.90;;;;;;5094809;28;20192;-45
2023/09/03 05:26:33;;;;;;;260.90;41.33;;;16.10;99.90;;;;;;5094960;28;20230;-45
2023/09/03 05:28:59;;;;;;;274.05;39.40;;;16.10;99.90;;;;;;5094694;28;20172;-44
2023/09/03 05:31:25;;;;;;;254.38;38.28;;;16.10;99.90;;;;;;5094883;28;20622;-44
2023/09/03 05:33:50;;;;;;;230.40;37.03;;;16.30;99.90;;;;;;5095216;28;20173;-44
2023/09/03 05:36:16;;;;;;;207.18;38.17;;;16.20;99.90;;;;;;5094535;28;20231;-44
2023/09/03 05:38:42;;;;;;;254.48;38.92;;;16.30;99.90;;;;;;5094369;28;20212;-45
2023/09/03 05:41:10;;;;;;;177.30;37.33;;;16.50;99.90;;;;;;5094424;28;20214;-44
2023/09/03 05:43:37;;;;;;;200.40;35.88;;;16.40;99.90;;;;;;5094567;28;20504;-44
2023/09/03 05:46:04;;;;;;;161.30;30.85;;;16.50;99.90;;;;;;5093148;28;20204;-45
2023/09/03 05:48:30;;;;;;;194.88;30.80;;;16.50;99.90;;;;;;5094558;28;20230;-44
2023/09/03 05:51:03;;;;;;;248.20;32.03;;;16.50;99.90;;;;;;5094331;28;20169;-47
2023/09/03 05:53:32;;;;;;;218.52;30.95;;;16.60;99.90;;;;;;5094253;28;20208;-44
2023/09/03 05:56:11;;;;;;;174.20;28.17;;;16.60;99.90;;;;;;5093145;28;20218;-45
2023/09/03 05:58:37;;;;;;;135.27;26.35;;;16.60;99.90;;;;;;5094309;28;20600;-45
2023/09/03 06:01:08;;;;;;;191.35;27.38;;;16.60;99.90;;;;;;5092526;28;20173;-45
2023/09/03 06:03:34;;;;;;;138.93;27.63;;;16.70;99.90;;;;;;5094127;28;20172;-45
2023/09/03 06:06:10;;;;;;;132.25;28.90;;;16.70;99.90;;;;;;5094058;28;20173;-45
2023/09/03 06:08:36;;;;;;;150.27;28.15;;;16.90;99.90;;;;;;5094187;28;20221;-45
2023/09/03 06:11:03;;;;;;;177.80;26.88;;;16.90;99.90;;;;;;5093887;28;20161;-45
2023/09/03 06:13:29;;;;;;;114.10;26.17;;;17.10;99.90;;;;;;5093843;28;20169;-52
2023/09/03 06:15:55;;;;;;;139.95;27.67;;;17.10;99.90;;;;;;5093837;28;20246;-45
2023/09/03 06:18:22;;;;;;;149.57;26.60;;;17.10;99.90;;;;;;5094172;28;20242;-50
2023/09/03 06:20:48;;;;;;;126.78;25.50;;;17.30;99.90;;;;;;5094139;28;20173;-52
2023/09/03 06:23:17;;;;;;;113.30;24.63;;;17.40;99.90;;;;;;5093657;28;20192;-45
2023/09/03 06:25:43;;;;;;;131.75;24.02;;;;;;;;;;5093959;28;20509;-52
2023/09/03 06:28:09;;;;;;;121.75;24.00;;;17.50;99.90;;;;;;5093659;28;20218;-45
2023/09/03 06:30:35;;;;;;;114.88;23.98;;;17.60;99.90;;;;;;5093722;28;20173;-52
2023/09/03 06:33:01;;;;;;;36.50;23.67;;;17.50;99.90;;;;;;5093434;28;20165;-52
2023/09/03 06:35:26;;;;;;;56.72;25.60;;;17.60;99.90;;;;;;5093410;28;20166;-52
2023/09/03 06:37:52;;;;;;;59.33;24.42;;;;;;;;;;5093966;28;20200;-45
2023/09/03 06:40:18;;;;;;;53.30;23.92;;;17.30;99.90;;;;;;5092460;28;20207;-49
2023/09/03 06:42:43;;;;;;;58.08;26.10;;;17.40;99.90;;;;;;5093525;28;20165;-49
2023/09/03 06:45:10;;;;;;;95.63;27.63;;;17.40;99.90;;;;;;5093097;28;20740;-48
2023/09/03 06:47:36;;;;;;;55.58;26.65;;;17.60;99.90;;;;;;5093419;28;20210;-48
2023/09/03 06:50:01;;;;;;;44.70;26.17;;;17.90;99.90;;;;;;5091826;28;20169;-49
2023/09/03 06:52:27;;;;;;;45.22;26.50;;;17.80;99.90;;;;;;5092780;28;20169;-46
2023/09/03 06:54:52;;;;;;;37.53;26.58;;;17.80;99.90;;;;;;5093077;28;20740;-47
2023/09/03 06:57:20;;;;;;;40.50;26.63;;;;;;;;;;5093231;28;20736;-46
2023/09/03 06:59:45;;;;;;;34.75;26.42;;;17.90;99.90;;;;;;5093056;28;20254;-46
2023/09/03 07:02:11;;;;;;;31.65;27.63;;;18.00;99.90;;;;;;5091542;28;20170;-45
2023/09/03 07:04:36;;;;;;;39.22;29.17;;;18.10;99.90;;;;;;5092744;28;20227;-45
2023/09/03 07:07:02;;;;;;;40.10;28.63;;;18.10;99.90;;;;;;5092728;28;20240;-45
2023/09/03 07:09:29;;;;;;;36.38;28.05;;;18.20;99.90;;;;;;5092677;28;20530;-44
2023/09/03 07:11:55;;;;;;;45.20;26.38;;;;;;;;;;5092610;28;20216;-45
2023/09/03 07:14:20;;;;;;;36.58;28.08;;;18.20;99.90;;;;;;5092486;28;20623;-45
2023/09/03 07:16:46;;;;;;;33.50;27.38;;;18.10;99.90;;;;;;5092574;28;20176;-45
2023/09/03 07:19:12;;;;;;;34.15;27.65;;;18.20;99.90;;;;;;5092630;28;20215;-44
2023/09/03 07:21:37;;;;;;;34.67;28.23;;;18.30;99.90;;;;;;5092567;28;20169;-45
2023/09/03 07:24:03;;;;;;;35.35;27.83;;;18.40;99.90;;;;;;5092930;28;20173;-45
2023/09/03 07:26:29;;;;;;;35.22;28.77;;;18.50;99.90;;;;;;5091859;28;20510;-44
2023/09/03 07:28:54;;;;;;;33.25;28.75;;;18.50;99.90;;;;;;5092416;28;20261;-45
2023/09/03 07:31:21;;;;;;;35.10;28.38;;;18.40;99.90;;;;;;5092635;28;20638;-45
2023/09/03 07:33:47;;;;;;;37.42;30.50;;;18.60;99.90;;;;;;5092203;28;20512;-44
2023/09/03 07:36:13;;;;;;;34.03;29.02;;;18.60;99.90;;;;;;5092127;28;20162;-45
2023/09/03 07:38:39;;;;;;;38.47;31.52;;;18.80;99.90;;;;;;5091917;28;20557;-44
2023/09/03 07:41:04;;;;;;;38.10;30.58;;;18.80;99.90;;;;;;5092110;28;20169;-45
2023/09/03 07:43:30;;;;;;;35.95;31.35;;;18.80;99.90;;;;;;5092120;28;20177;-45
2023/09/03 07:45:55;;;;;;;38.70;30.13;;;18.80;99.90;;;;;;5091887;28;20230;-45
2023/09/03 07:48:22;;;;;;;37.78;30.17;;;18.80;99.90;;;;;;5092540;28;20243;-45
2023/09/03 07:50:49;;;;;;;34.90;30.27;;;18.80;99.90;;;;;;5092517;28;20173;-46
2023/09/03 07:53:14;;;;;;;37.25;31.02;;;18.80;99.90;;;;;;5091802;28;20169;-44
2023/09/03 07:55:40;;;;;;;38.30;31.55;;;19.00;99.90;;;;;;5091804;28;20169;-45
2023/09/03 07:58:05;;;;;;;37.45;30.63;;;19.00;99.90;;;;;;5091958;28;20238;-45
2023/09/03 08:00:31;;;;;;;32.13;28.45;;;19.10;99.90;;;;;;5091860;28;20571;-44
2023/09/03 08:02:56;;;;;;;35.45;30.33;;;19.20;99.90;;;;;;5092046;28;20644;-44
2023/09/03 08:05:23;;;;;;;39.22;29.73;;;19.30;99.90;;;;;;5091761;28;20165;-44
2023/09/03 08:07:48;;;;;;;33.10;28.13;;;19.40;99.90;;;;;;5092263;28;20172;-45
2023/09/03 08:10:14;;;;;;;39.38;30.42;;;19.40;99.90;;;;;;5091735;28;20534;-44
2023/09/03 08:12:40;;;;;;;34.22;29.75;;;;;;;;;;5091692;28;20222;-44
2023/09/03 08:15:07;;;;;;;34.28;29.77;;;19.50;99.90;;;;;;5091641;28;20169;-44
2023/09/03 08:17:32;;;;;;;36.83;31.38;;;19.60;99.90;;;;;;5091878;28;20554;-45
2023/09/03 08:19:58;;;;;;;35.45;31.65;;;19.60;99.90;;;;;;5091488;28;20214;-44
2023/09/03 08:22:24;;;;;;;37.67;32.33;;;19.70;99.90;;;;;;5091438;28;20169;-44
2023/09/03 08:24:49;;;;;;;39.00;33.42;;;19.80;99.90;;;;;;5092117;28;20169;-44
2023/09/03 08:27:15;;;;;;;39.20;33.78;;;19.60;99.90;;;;;;5091508;28;20695;-45
2023/09/03 08:29:41;;;;;;;38.95;33.03;;;19.60;99.90;;;;;;5091384;28;20168;-45
2023/09/03 08:32:07;;;;;;;36.97;32.47;;;20.10;99.90;;;;;;5091500;28;20201;-45
2023/09/03 08:34:32;;;;;;;33.75;29.83;;;19.80;99.90;;;;;;5091395;28;20204;-45
2023/09/03 08:36:58;;;;;;;36.35;30.25;;;19.70;99.90;;;;;;5091335;28;20230;-44
2023/09/03 08:39:23;;;;;;;40.00;32.85;;;19.70;99.90;;;;;;5091323;28;20205;-44
2023/09/03 08:41:50;;;;;;;36.60;31.13;;;20.00;99.90;;;;;;5091798;28;20162;-45
2023/09/03 08:44:55;;;;;;;37.92;31.45;;;20.20;99.90;;;;;;5091370;28;20221;-44
2023/09/03 08:47:21;;;;;;;30.75;27.45;;;20.30;99.90;;;;;;5091727;28;20586;-44
2023/09/03 08:49:47;;;;;;;32.42;27.13;;;20.40;99.90;;;;;;5091656;28;20165;-44
2023/09/03 08:52:15;;;;;;;28.55;25.40;;;20.60;99.90;;;;;;5091135;28;20637;-45
2023/09/03 08:54:41;;;;;;;30.15;26.85;;;;;;;;;;5091470;28;20327;-45
2023/09/03 08:57:09;;;;;;;28.25;24.67;;;20.50;99.90;;;;;;5091179;28;20210;-44
2023/09/03 08:59:34;;;;;;;30.50;26.45;;;20.50;99.90;;;;;;5091065;28;20292;-44
2023/09/03 09:02:01;;;;;;;29.58;25.73;;;20.70;99.90;;;;;;5091422;28;20264;-44
2023/09/03 09:04:30;;;;;;;35.15;28.00;;;20.80;99.90;;;;;;5091367;28;20222;-45
2023/09/03 09:06:58;;;;;;;31.52;28.15;;;20.70;99.90;;;;;;5089855;28;20169;-46
2023/09/03 09:09:26;;;;;;;30.80;27.60;;;20.90;99.90;;;;;;5091140;28;20218;-44
2023/09/03 09:12:01;;;;;;;33.53;28.55;;;20.80;99.90;;;;;;5091019;28;20256;-45
2023/09/03 09:14:52;;;;;;;33.30;28.20;;;20.90;99.90;;;;;;5090479;28;20188;-46
2023/09/03 09:17:18;;;;;;;32.80;28.80;;;21.10;99.90;;;;;;5091445;28;20170;-45
2023/09/03 09:19:44;;;;;;;35.08;30.05;;;;;;;;;;5089682;28;20208;-45
2023/09/03 09:22:10;;;;;;;34.10;29.52;;;21.10;99.90;;;;;;5091028;28;20165;-44
2023/09/03 09:24:44;;;;;;;36.72;30.92;;;21.10;99.90;;;;;;5091029;28;20169;-46
2023/09/03 09:27:14;;;;;;;35.10;27.73;;;21.60;99.90;;;;;;5091278;28;20177;-44
2023/09/03 09:29:40;;;;;;;29.83;25.88;;;21.70;99.90;;;;;;5090890;28;20335;-47
2023/09/03 09:32:26;;;;;;;30.17;25.23;;;21.70;99.90;;;;;;5090748;28;20240;-45
2023/09/03 09:34:52;;;;;;;33.30;25.63;;;;;;;;;;5090778;28;20555;-45
2023/09/03 09:37:17;;;;;;;30.00;25.02;;;21.90;99.90;;;;;;5094108;28;20162;-45
2023/09/03 09:39:48;;;;;;;27.13;23.80;;;21.90;99.90;;;;;;5094520;28;20610;-45
2023/09/03 09:42:18;;;;;;;27.50;24.30;;;22.20;99.90;;;;;;5094437;28;20188;-44
2023/09/03 09:44:53;;;;;;;23.17;20.80;;;22.30;99.90;;;;;;5094302;28;20225;-46
2023/09/03 09:47:20;;;;;;;20.67;18.48;;;22.40;99.90;;;;;;5094323;28;20214;-45
2023/09/03 09:49:46;;;;;;;23.65;21.15;;;22.50;99.90;;;;;;5094281;28;20237;-45
2023/09/03 09:52:12;;;;;;;26.33;21.48;;;22.50;99.90;;;;;;5094180;28;20161;-44
2023/09/03 09:54:39;;;;;;;20.55;18.45;;;22.60;99.90;;;;;;5094242;28;20179;-45
2023/09/03 09:57:16;;;;;;;23.20;18.20;;;22.50;99.90;;;;;;5094370;28;20173;-45
2023/09/03 09:59:43;;;;;;;20.40;18.20;;;22.50;99.90;;;;;;5094305;28;20240;-45
2023/09/03 10:02:13;;;;;;;20.52;18.23;;;22.70;99.90;;;;;;5094237;28;20161;-45
2023/09/03 10:04:47;;;;;;;22.35;19.88;;;22.90;99.90;;;;;;5094320;28;20173;-44
2023/09/03 10:07:13;;;;;;;22.55;20.20;;;23.00;99.90;;;;;;5094018;28;20157;-45
2023/09/03 10:09:41;;;;;;;21.50;19.25;;;23.00;99.90;;;;;;5093914;28;20502;-45
2023/09/03 10:12:08;;;;;;;24.42;19.13;;;22.90;99.90;;;;;;5093860;28;20173;-45
2023/09/03 10:14:34;;;;;;;21.45;19.25;;;22.90;99.90;;;;;;5093895;28;20165;-44
2023/09/03 10:17:03;;;;;;;20.88;18.05;;;23.10;99.90;;;;;;5093773;28;20179;-45
2023/09/03 10:19:47;;;;;;;17.95;16.02;;;23.40;99.90;;;;;;5093679;28;20204;-45
2023/09/03 10:22:16;;;;;;;12.55;11.32;;;23.20;99.90;;;;;;5093722;28;20197;-45
2023/09/03 10:24:45;;;;;;;12.90;9.27;;;23.30;99.90;;;;;;5093570;28;20641;-45
2023/09/03 10:27:14;;;;;;;9.35;8.45;;;23.10;99.90;;;;;;5093527;28;20229;-45
2023/09/03 10:29:42;;;;;;;9.93;8.95;;;23.50;99.90;;;;;;5093355;28;20226;-45
2023/09/03 10:32:11;;;;;;;8.95;8.07;;;23.50;99.90;;;;;;5093455;28;20642;-45
2023/09/03 10:34:37;;;;;;;7.50;6.35;;;23.80;99.90;;;;;;5093448;28;20195;-44
2023/09/03 10:37:06;;;;;;;9.60;8.32;;;;;;;;;;5093182;28;20164;-46
2023/09/03 10:39:32;;;;;;;7.93;6.95;;;23.80;99.90;;;;;;5093252;28;20196;-45
2023/09/03 10:42:23;;;;;;;8.23;7.00;;;23.70;99.90;;;;;;5092704;28;20161;-45
2023/09/03 10:44:58;;;;;;;8.05;6.50;;;23.90;99.90;;;;;;5093427;28;20761;-45
2023/09/03 10:47:24;;;;;;;6.10;5.50;;;23.80;99.90;;;;;;5092128;28;20171;-44
2023/09/03 10:49:51;;;;;;;8.65;6.90;;;24.00;99.90;;;;;;5093492;28;20160;-45
2023/09/03 10:52:31;;;;;;;8.90;8.00;;;24.00;99.90;;;;;;5092312;28;20638;-45
2023/09/03 10:55:14;;;;;;;8.70;7.30;;;24.00;99.90;;;;;;5092784;28;20619;-44
2023/09/03 10:57:41;;;;;;;6.47;5.88;;;24.10;99.90;;;;;;5092977;28;20536;-46
2023/09/03 11:00:16;;;;;;;6.85;5.72;;;24.00;99.90;;;;;;5092378;28;20231;-45
2023/09/03 11:02:42;;;;;;;9.30;5.60;;;24.20;99.90;;;;;;5092325;28;20153;-47
2023/09/03 11:05:09;;;;;;;6.50;5.65;;;24.30;99.90;;;;;;5092666;28;20169;-45
2023/09/03 11:07:35;;;;;;;6.55;5.93;;;24.40;99.90;;;;;;5092254;28;20172;-45
2023/09/03 11:10:28;;;;;;;6.30;5.55;;;24.30;99.90;;;;;;5092459;28;20161;-45
2023/09/03 11:12:54;;;;;;;6.25;5.07;;;24.50;99.90;;;;;;5092603;28;20183;-45
2023/09/03 11:15:20;;;;;;;7.57;6.30;;;24.50;99.90;;;;;;5092773;28;20239;-44
2023/09/03 11:17:56;;;;;;;8.35;7.55;;;24.40;99.90;;;;;;5092482;28;20173;-48
2023/09/03 11:20:35;;;;;;;7.65;6.80;;;24.70;99.90;;;;;;5091567;28;20207;-45
2023/09/03 11:23:04;;;;;;;7.20;6.50;;;25.00;99.90;;;;;;5092228;28;20172;-44
2023/09/03 11:25:35;;;;;;;6.72;5.05;;;25.00;99.90;;;;;;5091739;28;20165;-44
2023/09/03 11:28:01;;;;;;;6.07;5.47;;;24.90;99.90;;;;;;5092378;28;20172;-45
2023/09/03 11:30:27;;;;;;;7.90;5.50;;;24.90;99.90;;;;;;5092364;28;20161;-44
2023/09/03 11:32:53;;;;;;;6.00;5.50;;;25.00;99.90;;;;;;5091848;28;20214;-45
2023/09/03 11:35:19;;;;;;;6.35;4.72;;;25.20;99.90;;;;;;5092996;28;20169;-45
2023/09/03 11:37:44;;;;;;;5.57;4.95;;;25.20;99.90;;;;;;5092309;28;20685;-44
2023/09/03 11:40:11;;;;;;;7.40;5.43;;;25.20;99.90;;;;;;5092265;28;20316;-45
2023/09/03 11:42:40;;;;;;;6.85;5.47;;;25.00;99.90;;;;;;5092204;28;20503;-45
2023/09/03 11:45:08;;;;;;;7.97;4.90;;;25.10;99.90;;;;;;5092041;28;20228;-44
2023/09/03 11:47:49;;;;;;;5.05;4.38;;;25.30;99.90;;;;;;5091779;28;20214;-45
2023/09/03 11:50:16;;;;;;;4.97;4.50;;;25.40;99.90;;;;;;5091935;28;20198;-44
2023/09/03 11:52:47;;;;;;;5.82;5.22;;;25.60;99.90;;;;;;5091955;28;20169;-44
2023/09/03 11:55:13;;;;;;;7.05;4.97;;;25.40;99.90;;;;;;5092184;28;20179;-44
2023/09/03 11:57:42;;;;;;;5.10;4.55;;;25.30;99.90;;;;;;5091872;28;20165;-44
2023/09/03 12:00:09;;;;;;;6.82;4.00;;;25.20;99.90;;;;;;5091511;28;20199;-45
2023/09/03 12:02:35;;;;;;;6.55;5.90;;;25.20;99.90;;;;;;5091676;28;20157;-45
2023/09/03 12:05:03;;;;;;;80.25;71.65;;;25.20;99.90;;;;;;5091781;28;20264;-45
2023/09/03 12:07:28;;;;;;;6.57;5.72;;;25.30;99.90;;;;;;5091919;28;20222;-44
2023/09/03 12:09:54;;;;;;;4.38;3.97;;;25.40;99.90;;;;;;5091583;28;20169;-45
2023/09/03 12:12:19;;;;;;;4.07;3.60;;;25.50;99.90;;;;;;5091333;28;20242;-45
2023/09/03 12:14:50;;;;;;;5.20;4.60;;;25.60;99.90;;;;;;5091586;28;20161;-44
2023/09/03 12:17:25;;;;;;;6.95;6.07;;;25.60;99.90;;;;;;5092121;28;20177;-53
2023/09/03 12:19:52;;;;;;;4.05;3.75;;;25.60;99.90;;;;;;5091183;28;20208;-51
2023/09/03 12:22:19;;;;;;;4.85;3.67;;;25.50;99.90;;;;;;5091914;28;20165;-53
2023/09/03 12:24:49;;;;;;;4.13;3.50;;;25.30;99.90;;;;;;5090937;28;20169;-51
2023/09/03 12:27:15;;;;;;;4.70;4.30;;;25.50;99.90;;;;;;5091020;28;20218;-52
2023/09/03 12:29:42;;;;;;;5.80;3.92;;;25.50;99.90;;;;;;5091327;28;20173;-52
2023/09/03 12:32:14;;;;;;;5.40;4.63;;;25.80;99.90;;;;;;5091027;28;20205;-52
2023/09/03 12:34:40;;;;;;;3.83;3.50;;;25.80;99.90;;;;;;5091199;28;20168;-47
2023/09/03 12:37:08;;;;;;;3.72;2.88;;;25.80;99.90;;;;;;5091270;28;20172;-53
2023/09/03 12:39:36;;;;;;;3.92;3.20;;;25.70;99.90;;;;;;5091122;28;20584;-53